Time;durP1;ratioP1;P1;durP2;ratioP2;P2;SDS_P1;SDS_P2;PMS_P1;PMS_P2;Temp;Humidity;BMP_temperature;BMP_pressure;BME280_temperature;BME280_humidity;BME280_pressure;Samples;Min_cycle;Max_cycle;Signal;HPM_P1;HPM_P2
2023/11/15 00:00:40;;;;;;;4.60;0.50;;;;;;;;;;5077610;28;20516;-73
2023/11/15 00:03:07;;;;;;;0.60;0.50;;;;;;;;;;5069673;28;20415;-73
2023/11/15 00:05:32;;;;;;;1.30;0.60;;;11.50;1.00;;;;;;5092646;28;20485;-73
2023/11/15 00:07:59;;;;;;;2.50;0.60;;;11.50;1.00;;;;;;5088885;28;21207;-82
2023/11/15 00:10:58;;;;;;;2.50;0.60;;;11.50;1.00;;;;;;5077532;28;20282;-82
2023/11/15 00:13:24;;;;;;;0.47;0.40;;;11.60;1.00;;;;;;5077364;28;20482;-83
2023/11/15 00:15:59;;;;;;;0.47;0.40;;;11.60;1.00;;;;;;5093826;28;20415;-82
2023/11/15 00:18:25;;;;;;;1.73;0.50;;;11.60;1.00;;;;;;5097784;28;20563;-82
2023/11/15 00:20:59;;;;;;;2.60;0.43;;;11.60;1.00;;;;;;5071571;28;20410;-82
2023/11/15 00:23:26;;;;;;;0.40;0.40;;;11.50;1.00;;;;;;5071908;28;20201;-73
2023/11/15 00:25:52;;;;;;;0.93;0.70;;;11.50;1.00;;;;;;5097070;28;20424;-73
2023/11/15 00:28:17;;;;;;;0.73;0.73;;;11.60;1.00;;;;;;5084335;28;20519;-73
2023/11/15 00:30:43;;;;;;;1.90;0.50;;;11.60;1.00;;;;;;5089735;28;20191;-73
2023/11/15 00:33:17;;;;;;;3.23;0.57;;;11.60;1.00;;;;;;5076577;28;20691;-73
2023/11/15 00:35:47;;;;;;;1.07;0.60;;;;;;;;;;5075162;28;20693;-73
2023/11/15 00:38:17;;;;;;;0.50;0.50;;;11.50;1.00;;;;;;5090816;28;20397;-83
2023/11/15 00:40:53;;;;;;;0.93;0.70;;;11.50;1.00;;;;;;5085243;28;20771;-82
2023/11/15 00:43:19;;;;;;;0.93;0.50;;;11.60;1.00;;;;;;5082037;28;20431;-83
2023/11/15 00:45:46;;;;;;;2.00;0.60;;;;;;;;;;5089918;28;20431;-82
2023/11/15 00:48:17;;;;;;;5.83;0.60;;;11.60;1.00;;;;;;5078110;28;20672;-82
2023/11/15 00:51:34;;;;;;;0.70;0.60;;;11.60;1.00;;;;;;5076209;28;20421;-82
2023/11/15 00:54:00;;;;;;;1.10;0.80;;;11.60;1.00;;;;;;5075864;28;20403;-73
2023/11/15 00:56:26;;;;;;;2.17;0.80;;;11.70;1.00;;;;;;5079195;28;20437;-73
2023/11/15 00:58:54;;;;;;;4.87;1.13;;;11.70;1.00;;;;;;5082961;28;20630;-73
2023/11/15 01:01:20;;;;;;;2.30;0.70;;;;;;;;;;5083333;28;20527;-73
2023/11/15 01:03:55;;;;;;;4.20;0.73;;;11.70;1.00;;;;;;5072593;28;20430;-73
2023/11/15 01:06:25;;;;;;;3.77;0.73;;;11.70;1.00;;;;;;5063693;28;20425;-73
2023/11/15 01:08:52;;;;;;;4.33;0.73;;;11.70;1.00;;;;;;5074605;28;20476;-74
2023/11/15 01:11:26;;;;;;;4.20;1.33;;;;;;;;;;5075465;28;20452;-73
2023/11/15 01:13:53;;;;;;;4.30;1.10;;;11.60;1.00;;;;;;5087951;28;20433;-73
2023/11/15 01:16:23;;;;;;;0.80;0.57;;;11.60;1.00;;;;;;5092330;28;20444;-73
2023/11/15 01:18:49;;;;;;;1.30;0.60;;;;;;;;;;5079159;28;20485;-73
2023/11/15 01:21:18;;;;;;;1.27;0.63;;;11.70;1.00;;;;;;5096290;28;20905;-73
2023/11/15 01:27:28;;;;;;;11.63;0.80;;;11.70;1.00;;;;;;5080130;28;20457;-82
2023/11/15 01:29:59;;;;;;;2.23;1.00;;;11.60;1.00;;;;;;5096293;28;20393;-82
2023/11/15 01:32:58;;;;;;;2.83;0.80;;;11.70;1.00;;;;;;5077016;28;20526;-82
2023/11/15 01:35:58;;;;;;;1.43;0.60;;;11.70;1.00;;;;;;5075672;28;20452;-82
2023/11/15 01:38:25;;;;;;;1.00;0.50;;;;;;;;;;5109001;28;20428;-82
2023/11/15 01:44:29;;;;;;;0.63;0.60;;;;;;;;;;5077988;28;20399;-82
2023/11/15 01:47:29;;;;;;;4.10;0.80;;;11.60;1.00;;;;;;5083663;28;20918;-82
2023/11/15 01:50:29;;;;;;;2.17;0.70;;;11.60;1.00;;;;;;5072409;28;20478;-82
2023/11/15 01:53:29;;;;;;;2.00;0.73;;;11.50;1.00;;;;;;5077283;28;20514;-83
2023/11/15 01:56:13;;;;;;;1.63;0.67;;;11.60;1.00;;;;;;5095368;28;20487;-83
2023/11/15 01:59:00;;;;;;;1.33;0.73;;;11.50;1.00;;;;;;5076954;28;21119;-82
2023/11/15 02:01:31;;;;;;;9.47;1.47;;;11.50;1.00;;;;;;5094766;28;20431;-82
2023/11/15 02:03:59;;;;;;;2.10;0.73;;;;;;;;;;5066714;28;20460;-82
2023/11/15 02:06:58;;;;;;;2.00;0.70;;;11.40;1.00;;;;;;5055505;28;20387;-82
2023/11/15 02:09:29;;;;;;;4.23;0.87;;;;;;;;;;5089903;28;20519;-73
2023/11/15 02:11:55;;;;;;;2.10;1.00;;;11.40;1.00;;;;;;5082731;28;20835;-73
2023/11/15 02:14:21;;;;;;;2.30;0.80;;;11.50;1.00;;;;;;5073796;28;20441;-72
2023/11/15 02:16:47;;;;;;;2.53;0.90;;;11.50;1.00;;;;;;5074590;28;20441;-73
2023/11/15 02:19:15;;;;;;;4.93;0.90;;;11.50;1.00;;;;;;5087839;28;20228;-73
2023/11/15 02:21:47;;;;;;;1.90;0.70;;;11.50;1.00;;;;;;5074720;28;20416;-73
2023/11/15 02:30:59;;;;;;;1.27;0.60;;;11.50;1.00;;;;;;5073043;28;20414;-82
2023/11/15 02:33:29;;;;;;;2.90;0.80;;;11.50;1.00;;;;;;5090362;28;20437;-83
2023/11/15 02:35:59;;;;;;;3.70;0.63;;;11.50;1.00;;;;;;5085369;28;20427;-82
2023/11/15 02:38:29;;;;;;;1.77;0.87;;;11.50;1.00;;;;;;5088250;28;20433;-82
2023/11/15 02:41:29;;;;;;;8.03;0.90;;;11.50;1.00;;;;;;5077877;28;20403;-83
2023/11/15 02:44:29;;;;;;;3.53;0.70;;;11.50;1.00;;;;;;5062089;28;20401;-82
2023/11/15 02:46:59;;;;;;;3.50;0.70;;;;;;;;;;5089996;28;20492;-82
2023/11/15 02:49:29;;;;;;;2.10;0.60;;;;;;;;;;5083076;28;20483;-82
2023/11/15 02:51:59;;;;;;;1.53;0.83;;;11.50;1.00;;;;;;5089007;28;20971;-83
2023/11/15 02:54:25;;;;;;;3.73;1.23;;;11.50;1.00;;;;;;5078227;28;20440;-73
2023/11/15 02:56:53;;;;;;;6.30;1.33;;;11.50;1.00;;;;;;5074158;28;20427;-73
2023/11/15 02:59:19;;;;;;;3.47;1.20;;;11.50;1.00;;;;;;5075702;28;20702;-73
2023/11/15 03:01:53;;;;;;;6.77;0.90;;;11.50;1.00;;;;;;5083560;28;20424;-73
2023/11/15 03:04:19;;;;;;;6.90;1.67;;;11.60;1.00;;;;;;5075733;28;20773;-73
2023/11/15 03:06:44;;;;;;;6.70;0.70;;;11.60;1.00;;;;;;5073933;28;20413;-73
2023/11/15 03:09:11;;;;;;;3.97;0.90;;;;;;;;;;5084596;28;20183;-73
2023/11/15 03:11:37;;;;;;;6.20;1.40;;;;;;;;;;5078695;28;20241;-74
2023/11/15 03:14:02;;;;;;;5.37;1.10;;;11.50;1.00;;;;;;5074615;28;20792;-74
2023/11/15 03:16:30;;;;;;;4.93;1.03;;;;;;;;;;5073774;28;20406;-73
2023/11/15 03:18:56;;;;;;;6.20;1.23;;;;;;;;;;5082307;28;20634;-73
2023/11/15 03:21:23;;;;;;;2.27;0.77;;;11.60;1.00;;;;;;5074807;28;20802;-72
2023/11/15 03:23:49;;;;;;;4.47;1.07;;;;;;;;;;5086078;28;20905;-72
2023/11/15 03:26:15;;;;;;;3.03;0.93;;;11.60;1.00;;;;;;5075717;28;20478;-73
2023/11/15 03:28:41;;;;;;;4.43;1.07;;;11.60;1.00;;;;;;5072889;28;20525;-73
2023/11/15 03:31:12;;;;;;;3.20;0.80;;;11.60;1.00;;;;;;5081425;28;20228;-73
2023/11/15 03:33:47;;;;;;;6.70;1.10;;;11.60;1.00;;;;;;5086943;28;20167;-73
2023/11/15 03:36:17;;;;;;;8.60;1.03;;;11.50;1.00;;;;;;5073132;28;20422;-73
2023/11/15 03:38:43;;;;;;;2.57;1.10;;;11.50;1.00;;;;;;5082657;28;20885;-74
2023/11/15 03:41:17;;;;;;;3.60;1.20;;;11.60;1.00;;;;;;5077557;28;20432;-73
2023/11/15 03:43:43;;;;;;;2.43;0.80;;;11.50;1.00;;;;;;5072848;28;20432;-73
2023/11/15 03:46:17;;;;;;;6.47;0.70;;;11.50;1.00;;;;;;5074326;28;20459;-74
2023/11/15 03:48:47;;;;;;;2.17;1.00;;;11.50;1.00;;;;;;5091338;28;20439;-73
2023/11/15 03:51:13;;;;;;;2.87;1.00;;;11.40;1.00;;;;;;5080011;28;20470;-73
2023/11/15 03:53:39;;;;;;;1.33;0.73;;;;;;;;;;5070173;28;20416;-74
2023/11/15 03:56:06;;;;;;;4.90;1.27;;;;;;;;;;5070451;28;20821;-73
2023/11/15 03:58:35;;;;;;;3.13;0.80;;;11.40;1.00;;;;;;5073628;28;20428;-73
2023/11/15 04:01:05;;;;;;;0.80;0.80;;;11.40;1.00;;;;;;5073250;28;20492;-73
2023/11/15 04:03:32;;;;;;;1.10;0.70;;;11.40;1.00;;;;;;5073281;28;20484;-73
2023/11/15 04:06:00;;;;;;;4.40;1.00;;;11.40;1.00;;;;;;5072219;28;20438;-73
2023/11/15 04:08:29;;;;;;;1.23;0.80;;;;;;;;;;5083176;28;20435;-74
2023/11/15 04:10:57;;;;;;;4.30;0.90;;;;;;;;;;5088384;28;20420;-74
2023/11/15 04:13:24;;;;;;;5.03;0.87;;;11.30;1.00;;;;;;5072998;28;20421;-73
2023/11/15 04:15:54;;;;;;;0.70;0.60;;;11.30;1.00;;;;;;5073193;28;20420;-73
2023/11/15 04:18:20;;;;;;;3.60;0.77;;;;;;;;;;5073112;28;20496;-73
2023/11/15 04:20:47;;;;;;;2.70;0.90;;;11.40;1.00;;;;;;5073134;28;20451;-73
2023/11/15 04:23:17;;;;;;;1.67;0.77;;;11.30;1.00;;;;;;5085504;28;20452;-73
2023/11/15 04:25:43;;;;;;;3.10;1.03;;;11.30;1.00;;;;;;5072212;28;20779;-73
2023/11/15 04:28:12;;;;;;;2.73;0.97;;;11.20;1.00;;;;;;5086100;28;20416;-73
2023/11/15 04:30:39;;;;;;;1.50;0.80;;;11.10;1.00;;;;;;5083612;28;20195;-73
2023/11/15 04:33:05;;;;;;;1.10;0.60;;;;;;;;;;5072733;28;20853;-73
2023/11/15 04:35:35;;;;;;;2.07;0.80;;;11.10;1.00;;;;;;5073062;28;20429;-73
2023/11/15 04:38:05;;;;;;;3.23;1.10;;;11.10;1.00;;;;;;5072571;28;20493;-73
2023/11/15 04:40:31;;;;;;;1.93;0.67;;;;;;;;;;5071745;28;20415;-73
2023/11/15 04:42:57;;;;;;;3.13;0.60;;;11.10;1.00;;;;;;5073814;28;20759;-73
2023/11/15 04:45:23;;;;;;;0.87;0.67;;;;;;;;;;5077282;28;20432;-73
2023/11/15 04:47:49;;;;;;;1.70;0.57;;;;;;;;;;5086876;28;20417;-74
2023/11/15 04:50:16;;;;;;;4.67;1.00;;;11.10;1.00;;;;;;5086497;28;20428;-73
2023/11/15 04:52:47;;;;;;;1.27;0.80;;;11.10;1.00;;;;;;5078600;28;20460;-73
2023/11/15 04:58:36;;;;;;;4.17;1.07;;;;;;;;;;5070191;28;20507;-82
2023/11/15 05:01:06;;;;;;;1.37;0.77;;;11.00;1.00;;;;;;5069473;28;20437;-82
2023/11/15 05:03:35;;;;;;;2.50;0.70;;;11.00;1.00;;;;;;5065700;28;20436;-82
2023/11/15 05:06:41;;;;;;;2.00;0.80;;;11.00;1.00;;;;;;5074883;28;20436;-81
2023/11/15 05:09:08;;;;;;;1.00;0.70;;;10.90;1.00;;;;;;5077548;28;20460;-73
2023/11/15 05:11:35;;;;;;;9.73;1.83;;;10.80;1.00;;;;;;5074242;28;20868;-73
2023/11/15 05:14:06;;;;;;;5.50;0.80;;;10.80;1.00;;;;;;5078965;28;20421;-72
2023/11/15 05:16:41;;;;;;;1.47;0.80;;;10.80;1.00;;;;;;5080827;28;21036;-73
2023/11/15 05:19:07;;;;;;;4.00;0.60;;;10.70;1.00;;;;;;5080665;28;20416;-74
2023/11/15 05:21:33;;;;;;;7.23;1.57;;;10.80;1.00;;;;;;5091957;28;20883;-74
2023/11/15 05:24:11;;;;;;;1.83;0.80;;;10.70;1.00;;;;;;5075726;28;20520;-74
2023/11/15 05:40:06;;;;;;;1.43;0.87;;;10.60;1.00;;;;;;5081499;28;20412;-86
2023/11/15 05:43:17;;;;;;;12.13;0.70;;;10.60;1.00;;;;;;5074860;28;20424;-86
2023/11/15 05:49:04;;;;;;;7.80;1.60;;;;;;;;;;5069186;28;20589;-84
2023/11/15 05:52:16;;;;;;;7.30;1.13;;;10.70;1.00;;;;;;5078626;28;20864;-88
2023/11/15 05:54:44;;;;;;;13.97;1.53;;;;;;;;;;5074649;28;20484;-88
2023/11/15 06:04:07;;;;;;;6.53;1.07;;;10.90;1.00;;;;;;5068046;28;21120;-84
2023/11/15 06:13:42;;;;;;;5.20;0.90;;;11.10;1.00;;;;;;5066785;28;20529;-81
2023/11/15 06:16:59;;;;;;;4.23;1.10;;;11.10;1.00;;;;;;5075916;28;20428;-81
2023/11/15 06:19:47;;;;;;;1.03;0.67;;;11.10;1.00;;;;;;5065949;28;20787;-81
2023/11/15 06:22:41;;;;;;;7.97;1.20;;;11.10;1.00;;;;;;5073244;28;20441;-80
2023/11/15 06:31:51;;;;;;;14.20;1.87;;;11.00;1.00;;;;;;5077700;28;20460;-80
2023/11/15 06:34:49;;;;;;;3.63;1.00;;;11.00;1.00;;;;;;5092614;28;20437;-82
2023/11/15 06:40:41;;;;;;;3.23;1.17;;;10.90;1.00;;;;;;5073914;28;20406;-82
2023/11/15 06:56:35;;;;;;;2.63;0.93;;;;;;;;;;5065580;28;20557;-81
2023/11/15 06:59:35;;;;;;;5.63;1.40;;;10.80;1.00;;;;;;5068144;28;20909;-81
2023/11/15 07:05:42;;;;;;;6.43;1.23;;;;;;;;;;5066559;28;20429;-82
2023/11/15 07:08:13;;;;;;;2.93;1.10;;;;;;;;;;5062750;28;20437;-82
2023/11/15 07:14:10;;;;;;;7.07;1.43;;;;;;;;;;5075787;28;21005;-83
2023/11/15 07:17:12;;;;;;;3.43;1.17;;;10.70;1.00;;;;;;5069572;28;20418;-82
2023/11/15 07:23:12;;;;;;;7.70;1.03;;;;;;;;;;5065825;28;20410;-82
2023/11/15 07:32:22;;;;;;;3.37;1.00;;;;;;;;;;5068630;28;20479;-80
2023/11/15 07:35:11;;;;;;;3.83;1.20;;;10.70;1.00;;;;;;5059557;28;20563;-80
2023/11/15 07:37:49;;;;;;;7.07;1.40;;;;;;;;;;5055059;28;20411;-83
2023/11/15 07:43:37;;;;;;;5.87;1.10;;;;;;;;;;5073645;28;20810;-82
2023/11/15 07:49:26;;;;;;;7.70;1.47;;;;;;;;;;5072441;28;20830;-82
2023/11/15 07:52:00;;;;;;;3.10;1.10;;;;;;;;;;5062081;28;20549;-81
2023/11/15 07:54:25;;;;;;;7.67;1.27;;;10.70;1.00;;;;;;5064070;28;20452;-73
2023/11/15 07:56:53;;;;;;;7.87;1.00;;;10.70;1.00;;;;;;5081857;28;20926;-82
2023/11/15 07:59:24;;;;;;;7.20;1.30;;;10.80;1.00;;;;;;5081976;28;20243;-82
2023/11/15 08:02:17;;;;;;;8.87;1.53;;;10.80;1.00;;;;;;5070315;28;20486;-82
2023/11/15 08:18:24;;;;;;;4.33;1.43;;;;;;;;;;5066583;28;20416;-82
2023/11/15 08:24:18;;;;;;;4.83;1.00;;;;;;;;;;5067353;28;20477;-82
2023/11/15 08:26:53;;;;;;;7.63;1.43;;;11.00;1.00;;;;;;5088874;28;20460;-82
2023/11/15 08:30:17;;;;;;;10.63;1.67;;;11.00;1.00;;;;;;5074006;28;20453;-82
2023/11/15 08:33:36;;;;;;;5.20;0.97;;;11.00;1.00;;;;;;5077564;28;20456;-83
2023/11/15 08:39:23;;;;;;;2.27;0.87;;;11.20;1.00;;;;;;5057027;28;20401;-82
2023/11/15 08:41:49;;;;;;;4.90;1.23;;;;;;;;;;5070456;28;20878;-82
2023/11/15 08:48:13;;;;;;;8.23;1.13;;;11.40;1.00;;;;;;5079002;28;20424;-82
2023/11/15 09:07:32;;;;;;;5.80;1.60;;;;;;;;;;5087561;28;20422;-82
2023/11/15 09:10:04;;;;;;;7.00;1.10;;;12.20;1.00;;;;;;5085127;28;20939;-82
2023/11/15 09:12:33;;;;;;;4.30;1.20;;;;;;;;;;5079367;28;20458;-82
2023/11/15 09:15:03;;;;;;;6.43;1.30;;;;;;;;;;5069212;28;20990;-82
2023/11/15 09:21:12;;;;;;;1.80;0.70;;;12.70;1.00;;;;;;5076285;28;20404;-82
2023/11/15 09:27:01;;;;;;;6.30;1.07;;;13.20;1.00;;;;;;5078329;28;20442;-73
2023/11/15 09:29:28;;;;;;;3.97;1.47;;;13.30;1.00;;;;;;5084223;28;20410;-72
2023/11/15 09:31:55;;;;;;;8.20;1.53;;;13.30;1.00;;;;;;5090023;28;20459;-73
2023/11/15 09:34:24;;;;;;;4.20;1.27;;;13.20;1.00;;;;;;5074144;28;20436;-73
2023/11/15 09:36:50;;;;;;;3.60;1.10;;;13.10;1.00;;;;;;5087997;28;20757;-73
2023/11/15 09:39:17;;;;;;;40.60;5.33;;;13.10;1.00;;;;;;5080845;28;20518;-72
2023/11/15 09:41:54;;;;;;;11.90;1.63;;;13.10;1.00;;;;;;5074645;28;20431;-82
2023/11/15 09:47:56;;;;;;;1.67;0.70;;;13.10;1.00;;;;;;5081992;28;20946;-82
2023/11/15 09:54:29;;;;;;;7.60;1.33;;;13.10;1.00;;;;;;5076294;28;20427;-81
2023/11/15 10:03:45;;;;;;;5.53;1.67;;;13.10;1.00;;;;;;5073101;28;20515;-82
2023/11/15 10:12:55;;;;;;;8.87;1.13;;;13.40;1.00;;;;;;5077672;28;20494;-73
2023/11/15 10:15:36;;;;;;;23.67;2.63;;;13.40;1.00;;;;;;5073999;28;20461;-73
2023/11/15 10:18:03;;;;;;;4.37;1.03;;;;;;;;;;5076885;28;20439;-73
2023/11/15 10:20:30;;;;;;;16.30;2.23;;;;;;;;;;5071191;28;20410;-73
2023/11/15 10:22:57;;;;;;;18.00;2.67;;;13.80;1.00;;;;;;5074029;28;20486;-72
2023/11/15 10:25:26;;;;;;;6.53;1.30;;;13.70;1.00;;;;;;5073647;28;20467;-73
2023/11/15 10:28:21;;;;;;;6.57;1.60;;;13.50;1.00;;;;;;5078948;28;20414;-82
2023/11/15 10:34:29;;;;;;;3.23;0.90;;;13.30;1.00;;;;;;5062071;28;20443;-82
2023/11/15 10:37:36;;;;;;;3.33;0.70;;;13.40;1.00;;;;;;5078906;28;20428;-82
2023/11/15 10:40:47;;;;;;;2.90;0.93;;;13.40;1.00;;;;;;5072135;28;20424;-81
2023/11/15 10:43:41;;;;;;;2.87;0.97;;;13.30;1.00;;;;;;5072361;28;20516;-82
2023/11/15 10:56:17;;;;;;;4.93;0.90;;;12.80;1.00;;;;;;5059956;28;20384;-81
2023/11/15 10:58:50;;;;;;;15.50;2.50;;;12.80;1.00;;;;;;5072177;28;20625;-73
2023/11/15 11:01:17;;;;;;;5.13;1.00;;;12.80;1.00;;;;;;5072954;28;20434;-73
2023/11/15 11:03:51;;;;;;;7.50;1.00;;;12.80;1.00;;;;;;5082349;28;21071;-73
2023/11/15 11:06:29;;;;;;;1.33;0.70;;;12.80;1.00;;;;;;5066412;27;21058;-73
2023/11/15 11:09:21;;;;;;;8.03;1.57;;;12.80;1.00;;;;;;5076835;28;20421;-73
2023/11/15 11:12:18;;;;;;;2.10;0.60;;;12.80;1.00;;;;;;5081614;28;20551;-74
2023/11/15 11:14:46;;;;;;;3.27;0.90;;;12.90;1.00;;;;;;5067748;28;20760;-73
2023/11/15 11:17:42;;;;;;;1.50;0.87;;;12.80;1.00;;;;;;5081646;28;20400;-73
2023/11/15 11:20:27;;;;;;;9.10;1.33;;;12.70;1.00;;;;;;5069305;28;20452;-72
2023/11/15 11:23:20;;;;;;;4.63;0.87;;;12.70;1.00;;;;;;5061613;28;20430;-73
2023/11/15 11:25:46;;;;;;;6.00;0.80;;;12.70;1.00;;;;;;5071944;28;20473;-73
2023/11/15 11:28:13;;;;;;;9.43;1.43;;;;;;;;;;5087214;28;20436;-73
2023/11/15 11:30:40;;;;;;;5.97;1.13;;;12.80;1.00;;;;;;5071754;28;20434;-73
2023/11/15 11:33:15;;;;;;;4.33;0.87;;;12.90;1.00;;;;;;5062324;28;20465;-72
2023/11/15 11:35:42;;;;;;;2.20;0.80;;;13.00;1.00;;;;;;5073722;28;20424;-73
2023/11/15 11:38:12;;;;;;;3.97;1.00;;;13.20;1.00;;;;;;5072999;28;20463;-73
2023/11/15 11:40:43;;;;;;;10.20;1.60;;;13.30;1.00;;;;;;5069555;28;20429;-73
2023/11/15 11:43:22;;;;;;;6.67;1.57;;;13.30;1.00;;;;;;5071559;28;20429;-73
2023/11/15 11:45:54;;;;;;;4.90;1.20;;;13.40;1.00;;;;;;5079997;28;20456;-73
2023/11/15 11:48:23;;;;;;;5.50;1.27;;;13.30;1.00;;;;;;5072970;28;20415;-74
2023/11/15 11:51:06;;;;;;;8.10;1.00;;;13.40;1.00;;;;;;5065076;28;20399;-73
2023/11/15 11:53:38;;;;;;;2.80;0.87;;;13.50;1.00;;;;;;5081791;28;20752;-73
2023/11/15 11:56:13;;;;;;;1.33;0.77;;;13.60;1.00;;;;;;5091528;28;20456;-73
2023/11/15 11:58:41;;;;;;;3.17;1.00;;;;;;;;;;5059151;28;20430;-72
2023/11/15 12:01:12;;;;;;;7.63;1.27;;;13.50;1.00;;;;;;5074933;28;20473;-73
2023/11/15 12:03:46;;;;;;;15.03;2.27;;;13.50;1.00;;;;;;5075284;28;20433;-73
2023/11/15 12:06:12;;;;;;;2.27;1.00;;;13.50;1.00;;;;;;5059876;28;20465;-73
2023/11/15 12:08:46;;;;;;;12.17;1.87;;;13.60;1.00;;;;;;5076041;28;20445;-72
2023/11/15 12:11:16;;;;;;;11.90;1.67;;;13.60;1.00;;;;;;5078371;28;20451;-72
2023/11/15 12:20:27;;;;;;;2.83;1.10;;;;;;;;;;5077576;28;20499;-82
2023/11/15 12:23:48;;;;;;;5.30;1.23;;;13.90;1.00;;;;;;5078990;28;20402;-81
2023/11/15 12:29:35;;;;;;;1.87;0.83;;;13.90;1.00;;;;;;5090383;28;20482;-82
2023/11/15 12:32:13;;;;;;;6.63;0.97;;;13.90;1.00;;;;;;5076730;28;20971;-81
2023/11/15 12:34:44;;;;;;;6.00;1.30;;;13.90;1.00;;;;;;5071272;28;20208;-81
2023/11/15 12:41:03;;;;;;;1.80;0.70;;;13.70;1.00;;;;;;5065531;28;20404;-82
2023/11/15 12:43:30;;;;;;;3.23;0.80;;;13.60;1.00;;;;;;5084991;28;20539;-73
2023/11/15 12:46:13;;;;;;;12.83;2.03;;;13.50;1.00;;;;;;5074969;28;20437;-72
2023/11/15 12:48:47;;;;;;;1.40;0.80;;;13.30;1.00;;;;;;5080949;28;20431;-74
2023/11/15 12:51:15;;;;;;;3.93;1.03;;;13.30;1.00;;;;;;5077001;28;20424;-72
2023/11/15 12:53:53;;;;;;;6.03;0.80;;;13.30;1.00;;;;;;5080729;28;20978;-74
2023/11/15 12:56:20;;;;;;;4.03;1.07;;;;;;;;;;5076059;28;20435;-73
2023/11/15 12:58:47;;;;;;;2.10;0.80;;;13.30;1.00;;;;;;5076182;28;20448;-73
2023/11/15 13:01:18;;;;;;;8.93;1.53;;;13.40;1.00;;;;;;5068999;28;20626;-72
2023/11/15 13:03:45;;;;;;;3.63;1.00;;;13.50;1.00;;;;;;5077505;28;20467;-72
2023/11/15 13:06:26;;;;;;;6.10;1.17;;;13.50;1.00;;;;;;5059961;27;20460;-72
2023/11/15 13:08:53;;;;;;;3.80;0.80;;;13.50;1.00;;;;;;5084368;28;20487;-72
2023/11/15 13:11:26;;;;;;;10.83;1.73;;;13.60;1.00;;;;;;5089268;28;20441;-72
2023/11/15 13:13:53;;;;;;;2.37;1.10;;;13.70;1.00;;;;;;5075501;28;20491;-72
2023/11/15 13:16:21;;;;;;;2.30;0.90;;;13.50;1.00;;;;;;5072780;28;20417;-72
2023/11/15 13:18:48;;;;;;;4.90;0.70;;;13.50;1.00;;;;;;5073484;28;20426;-71
2023/11/15 13:21:16;;;;;;;20.10;2.30;;;13.40;1.00;;;;;;5072830;28;20550;-72
2023/11/15 13:23:46;;;;;;;1.87;0.80;;;13.40;1.00;;;;;;5089228;28;20384;-72
2023/11/15 13:26:15;;;;;;;7.33;1.50;;;13.40;1.00;;;;;;5074271;28;20399;-72
2023/11/15 13:28:47;;;;;;;1.37;0.60;;;13.40;1.00;;;;;;5073757;28;20425;-72
2023/11/15 13:31:23;;;;;;;9.90;1.73;;;13.30;1.00;;;;;;5073836;28;20469;-73
2023/11/15 13:33:59;;;;;;;3.80;1.00;;;13.20;1.00;;;;;;5085514;28;20486;-73
2023/11/15 13:36:41;;;;;;;9.23;1.63;;;13.00;1.00;;;;;;5069870;28;20790;-73
2023/11/15 13:39:14;;;;;;;9.43;1.37;;;12.70;1.00;;;;;;5075456;28;20395;-73
2023/11/15 13:41:40;;;;;;;2.40;1.00;;;;;;;;;;5072315;28;20474;-73
2023/11/15 13:44:07;;;;;;;12.03;2.20;;;12.50;1.00;;;;;;5082630;28;20441;-73
2023/11/15 13:46:33;;;;;;;8.50;1.40;;;;;;;;;;5080820;28;21265;-73
2023/11/15 13:49:03;;;;;;;6.63;1.20;;;;;;;;;;5074412;28;20441;-73
2023/11/15 13:51:53;;;;;;;2.60;0.83;;;12.00;1.00;;;;;;5065460;28;20420;-75
2023/11/15 13:54:20;;;;;;;6.30;0.80;;;;;;;;;;5065342;28;20433;-72
2023/11/15 13:56:46;;;;;;;6.57;1.57;;;11.80;1.00;;;;;;5074032;28;20741;-73
2023/11/15 13:59:15;;;;;;;2.03;0.90;;;11.70;1.00;;;;;;5074472;28;20504;-73
2023/11/15 14:02:23;;;;;;;2.47;0.77;;;11.70;1.00;;;;;;5077210;28;20183;-82
2023/11/15 14:04:55;;;;;;;9.23;1.83;;;;;;;;;;5069580;28;20950;-82
2023/11/15 14:10:48;;;;;;;0.80;0.60;;;;;;;;;;5082736;28;20836;-82
2023/11/15 14:13:38;;;;;;;2.07;0.57;;;12.00;1.00;;;;;;5072104;28;20518;-83
2023/11/15 14:16:06;;;;;;;7.03;0.93;;;12.10;1.00;;;;;;5064338;28;20482;-73
2023/11/15 14:18:33;;;;;;;2.20;0.90;;;;;;;;;;5076794;28;20472;-73
2023/11/15 14:20:59;;;;;;;8.40;1.33;;;12.00;1.00;;;;;;5071682;28;20747;-76
2023/11/15 14:23:29;;;;;;;1.80;0.60;;;11.90;1.00;;;;;;5086417;28;20520;-76
2023/11/15 14:26:06;;;;;;;2.77;0.73;;;11.80;1.00;;;;;;5075196;28;20412;-74
2023/11/15 14:28:33;;;;;;;4.23;0.90;;;11.70;1.00;;;;;;5070765;28;20761;-74
2023/11/15 14:31:05;;;;;;;2.03;0.57;;;11.70;1.00;;;;;;5070687;28;21005;-85
2023/11/15 14:33:42;;;;;;;2.53;0.47;;;;;;;;;;5075214;28;20468;-85
2023/11/15 14:36:26;;;;;;;5.57;0.60;;;;;;;;;;5085094;28;20456;-84
2023/11/15 14:39:14;;;;;;;3.80;0.87;;;11.70;1.00;;;;;;5085961;28;20424;-79
2023/11/15 14:41:59;;;;;;;1.63;0.80;;;;;;;;;;5077910;28;20836;-83
2023/11/15 14:44:30;;;;;;;1.37;0.60;;;11.70;1.00;;;;;;5079883;28;20773;-81
2023/11/15 14:46:59;;;;;;;6.97;0.60;;;11.60;1.00;;;;;;5078170;28;20437;-81
2023/11/15 14:49:25;;;;;;;1.83;0.70;;;11.50;1.00;;;;;;5076637;28;20471;-80
2023/11/15 14:52:07;;;;;;;0.80;0.80;;;11.60;1.00;;;;;;5083870;28;20489;-81
2023/11/15 15:01:29;;;;;;;2.10;0.63;;;11.00;1.00;;;;;;5079348;28;20937;-80
2023/11/15 15:04:42;;;;;;;2.20;0.90;;;11.00;1.00;;;;;;5072450;28;20907;-79
2023/11/15 15:11:11;;;;;;;4.73;1.03;;;10.80;1.00;;;;;;5056771;28;20425;-83
2023/11/15 15:17:17;;;;;;;12.93;1.17;;;10.60;1.00;;;;;;5063380;28;20429;-84
2023/11/15 15:20:24;;;;;;;2.90;0.80;;;10.40;1.00;;;;;;5069492;28;20835;-84
2023/11/15 15:23:06;;;;;;;3.70;1.00;;;;;;;;;;5067739;28;20491;-82
2023/11/15 15:25:32;;;;;;;10.07;1.10;;;;;;;;;;5064634;28;20467;-86
2023/11/15 15:28:23;;;;;;;6.33;1.10;;;10.50;1.00;;;;;;5077106;28;20425;-86
2023/11/15 15:30:53;;;;;;;3.73;1.57;;;10.40;1.00;;;;;;5082834;28;20452;-88
2023/11/15 15:33:47;;;;;;;13.27;2.20;;;10.20;1.00;;;;;;5079750;28;20461;-86
2023/11/15 15:36:13;;;;;;;4.90;1.20;;;;;;;;;;5060000;28;20518;-83
2023/11/15 15:39:01;;;;;;;15.00;1.60;;;;;;;;;;5060822;28;21036;-86
2023/11/15 15:41:28;;;;;;;3.33;1.00;;;;;;;;;;5079056;28;20802;-86
2023/11/15 15:50:43;;;;;;;3.70;1.17;;;;;;;;;;5073115;28;20777;-88
2023/11/15 15:53:24;;;;;;;13.73;1.87;;;;;;;;;;5069505;28;21036;-77
2023/11/15 15:55:54;;;;;;;14.23;2.13;;;;;;;;;;5065272;28;20789;-82
2023/11/15 15:58:20;;;;;;;6.60;1.67;;;9.80;1.00;;;;;;5064913;28;20951;-80
2023/11/15 16:00:53;;;;;;;6.13;1.07;;;9.70;1.00;;;;;;5069487;28;20437;-78
2023/11/15 16:03:19;;;;;;;3.83;0.90;;;;;;;;;;5077985;28;20427;-81
2023/11/15 16:06:06;;;;;;;95.77;9.73;;;9.50;1.00;;;;;;5058307;28;20476;-80
2023/11/15 16:09:05;;;;;;;8.20;1.23;;;9.40;1.00;;;;;;5072963;28;20436;-82
2023/11/15 16:11:33;;;;;;;4.63;0.93;;;;;;;;;;5087298;28;20432;-81
2023/11/15 16:14:11;;;;;;;5.73;1.30;;;9.30;1.00;;;;;;5062940;28;20440;-82
2023/11/15 16:16:54;;;;;;;7.60;1.53;;;;;;;;;;5077423;28;20425;-81
2023/11/15 16:19:20;;;;;;;21.93;2.93;;;;;;;;;;5066058;28;20430;-73
2023/11/15 16:21:48;;;;;;;13.43;1.93;;;9.10;1.00;;;;;;5074245;28;20417;-74
2023/11/15 16:24:14;;;;;;;17.70;2.80;;;9.10;1.00;;;;;;5075866;28;20489;-73
2023/11/15 16:27:17;;;;;;;18.23;2.80;;;9.10;1.00;;;;;;5075951;28;20438;-74
2023/11/15 16:29:43;;;;;;;6.43;1.37;;;9.00;1.00;;;;;;5062877;28;20439;-73
2023/11/15 16:35:35;;;;;;;6.00;1.20;;;9.00;1.00;;;;;;5073003;28;20178;-80
2023/11/15 16:41:23;;;;;;;2.50;0.77;;;8.90;1.00;;;;;;5070685;28;20417;-80
2023/11/15 16:44:36;;;;;;;3.50;1.20;;;8.90;1.00;;;;;;5075550;28;20783;-80
2023/11/15 16:47:05;;;;;;;8.90;1.80;;;8.90;1.00;;;;;;5074895;28;20229;-77
2023/11/15 16:49:53;;;;;;;6.10;1.67;;;8.90;1.00;;;;;;5076273;28;20425;-80
2023/11/15 16:52:24;;;;;;;12.33;1.87;;;;;;;;;;5076840;28;20531;-81
2023/11/15 16:54:54;;;;;;;7.27;1.20;;;;;;;;;;5075248;28;20429;-80
2023/11/15 17:00:24;;;;;;;3.77;1.20;;;;;;;;;;5084181;28;20847;-79
2023/11/15 17:02:50;;;;;;;8.57;1.60;;;9.00;1.00;;;;;;5076152;28;20951;-81
2023/11/15 17:08:27;;;;;;;5.27;1.43;;;;;;;;;;5067218;28;20189;-81
2023/11/15 17:11:23;;;;;;;2.20;1.30;;;9.10;1.00;;;;;;5067378;28;20422;-81
2023/11/15 17:14:00;;;;;;;21.07;3.27;;;9.10;1.00;;;;;;5085791;28;20432;-80
2023/11/15 17:20:00;;;;;;;1.70;1.10;;;9.10;1.00;;;;;;5078346;28;20494;-74
2023/11/15 17:22:30;;;;;;;11.70;2.10;;;;;;;;;;5070626;28;20456;-73
2023/11/15 17:24:56;;;;;;;2.90;1.20;;;;;;;;;;5076447;28;20503;-73
2023/11/15 17:27:23;;;;;;;17.67;3.00;;;9.30;1.00;;;;;;5082511;28;20888;-73
2023/11/15 17:29:51;;;;;;;11.03;1.67;;;9.30;1.00;;;;;;5080602;28;20439;-73
2023/11/15 17:32:18;;;;;;;5.83;1.10;;;9.40;1.00;;;;;;5082916;28;20466;-74
2023/11/15 17:34:44;;;;;;;4.50;1.77;;;9.50;1.00;;;;;;5075085;28;20459;-74
2023/11/15 17:37:14;;;;;;;13.93;2.20;;;;;;;;;;5071645;28;20429;-74
2023/11/15 17:39:40;;;;;;;9.90;1.20;;;;;;;;;;5070397;28;20417;-74
2023/11/15 17:42:06;;;;;;;13.83;2.40;;;9.70;1.00;;;;;;5076063;28;20824;-73
2023/11/15 17:44:32;;;;;;;4.20;1.30;;;9.70;1.00;;;;;;5085792;28;20494;-74
2023/11/15 17:46:58;;;;;;;9.60;2.20;;;9.70;1.00;;;;;;5073996;28;20421;-74
2023/11/15 17:49:25;;;;;;;15.93;2.87;;;;;;;;;;5067243;28;20436;-74
2023/11/15 17:51:53;;;;;;;6.53;1.83;;;;;;;;;;5068404;28;20457;-73